Time;durP1;ratioP1;P1;durP2;ratioP2;P2;SDS_P1;SDS_P2;PMS_P1;PMS_P2;Temp;Humidity;BMP_temperature;BMP_pressure;BME280_temperature;BME280_humidity;BME280_pressure;Samples;Min_cycle;Max_cycle;Signal;HPM_P1;HPM_P2
2021/10/22 00:01:27;;;;;;;11.18;2.60;;;7.40;99.90;;;;;;5033904;28;20049;-74
2021/10/22 00:03:54;;;;;;;12.00;2.38;;;7.40;99.90;;;;;;5034442;28;20073;-74
2021/10/22 00:06:22;;;;;;;9.10;2.47;;;7.40;99.90;;;;;;5031544;28;20049;-74
2021/10/22 00:08:50;;;;;;;10.02;2.25;;;7.40;99.90;;;;;;5034367;28;20053;-74
2021/10/22 00:11:17;;;;;;;6.30;1.95;;;7.30;99.90;;;;;;5034329;28;20094;-74
2021/10/22 00:13:44;;;;;;;17.83;2.70;;;7.40;99.90;;;;;;5034460;28;20098;-74
2021/10/22 00:16:11;;;;;;;11.40;2.22;;;7.40;99.90;;;;;;5032275;28;20053;-74
2021/10/22 00:18:38;;;;;;;10.85;2.45;;;7.40;99.90;;;;;;5033902;28;20340;-74
2021/10/22 00:21:05;;;;;;;15.43;2.55;;;7.40;99.90;;;;;;5033348;28;20576;-74
2021/10/22 00:23:33;;;;;;;9.13;3.08;;;7.40;99.90;;;;;;5032656;28;20071;-74
2021/10/22 00:26:00;;;;;;;13.00;2.20;;;7.40;99.90;;;;;;5033144;28;20076;-74
2021/10/22 00:28:28;;;;;;;14.45;2.63;;;7.30;99.90;;;;;;5034028;28;20579;-74
2021/10/22 00:30:56;;;;;;;14.20;2.60;;;7.30;99.90;;;;;;5034547;28;20087;-74
2021/10/22 00:33:23;;;;;;;10.75;2.40;;;7.30;99.90;;;;;;5034587;28;20655;-74
2021/10/22 00:35:50;;;;;;;6.68;2.00;;;7.20;99.90;;;;;;5033679;28;20102;-74
2021/10/22 00:38:17;;;;;;;13.30;2.40;;;7.10;99.90;;;;;;5034478;28;20326;-74
2021/10/22 00:40:46;;;;;;;11.02;2.10;;;7.10;99.90;;;;;;5034169;28;20052;-74
2021/10/22 00:43:14;;;;;;;9.10;2.05;;;7.10;99.90;;;;;;5034998;28;20049;-74
2021/10/22 00:45:42;;;;;;;13.88;2.67;;;7.20;99.90;;;;;;5034622;28;20455;-74
2021/10/22 00:48:09;;;;;;;12.48;2.70;;;7.10;99.90;;;;;;5037847;28;20061;-74
2021/10/22 00:50:40;;;;;;;13.60;3.10;;;7.10;99.90;;;;;;5037812;28;20529;-74
2021/10/22 00:53:08;;;;;;;12.80;2.85;;;7.10;99.90;;;;;;5037340;28;21077;-74
2021/10/22 00:55:35;;;;;;;8.93;2.50;;;7.00;99.90;;;;;;5036210;28;20464;-74
2021/10/22 00:58:05;;;;;;;14.63;2.42;;;7.00;99.90;;;;;;5037100;28;20186;-74
2021/10/22 01:00:32;;;;;;;14.40;2.67;;;6.90;99.90;;;;;;5037822;28;20048;-74
2021/10/22 01:02:59;;;;;;;13.50;2.67;;;6.90;99.90;;;;;;5038226;28;20041;-74
2021/10/22 01:05:27;;;;;;;10.57;2.40;;;6.90;99.90;;;;;;5035805;28;20103;-74
2021/10/22 01:07:54;;;;;;;10.80;2.67;;;6.90;99.90;;;;;;5038931;28;20135;-74
2021/10/22 01:10:21;;;;;;;7.32;2.22;;;7.00;99.90;;;;;;5037947;28;20106;-74
2021/10/22 01:12:48;;;;;;;16.50;2.58;;;7.00;99.90;;;;;;5038074;28;20049;-74
2021/10/22 01:15:17;;;;;;;10.52;2.28;;;7.00;99.90;;;;;;5036032;28;20451;-74
2021/10/22 01:17:46;;;;;;;11.30;2.80;;;7.00;99.90;;;;;;5034830;28;20056;-75
2021/10/22 01:20:14;;;;;;;13.40;3.78;;;7.10;99.90;;;;;;5035998;28;20059;-74
2021/10/22 01:22:45;;;;;;;11.80;2.90;;;7.00;99.90;;;;;;5033675;28;20049;-74
2021/10/22 01:25:14;;;;;;;12.85;2.78;;;7.00;99.90;;;;;;5034408;28;20064;-75
2021/10/22 01:27:42;;;;;;;8.05;2.83;;;7.00;99.90;;;;;;5034373;28;20052;-74
2021/10/22 01:30:11;;;;;;;10.70;3.33;;;7.00;99.90;;;;;;5034939;28;20048;-75
2021/10/22 01:32:39;;;;;;;11.73;3.45;;;6.80;99.90;;;;;;5034924;28;20239;-74
2021/10/22 01:35:07;;;;;;;13.95;3.47;;;6.80;99.90;;;;;;5035633;28;20068;-75
2021/10/22 01:37:34;;;;;;;11.80;3.00;;;6.90;99.90;;;;;;5035636;28;20048;-75
2021/10/22 01:40:04;;;;;;;10.23;3.30;;;6.90;99.90;;;;;;5036722;28;20114;-75
2021/10/22 01:42:31;;;;;;;10.27;3.30;;;6.90;99.90;;;;;;5036909;28;20057;-75
2021/10/22 01:44:58;;;;;;;11.98;3.25;;;6.90;99.90;;;;;;5036528;28;20110;-75
2021/10/22 01:47:25;;;;;;;13.70;3.60;;;6.80;99.90;;;;;;5035481;28;20049;-74
2021/10/22 01:49:52;;;;;;;10.90;3.60;;;6.70;99.90;;;;;;5036122;28;20053;-75
2021/10/22 01:52:20;;;;;;;14.68;3.10;;;6.70;99.90;;;;;;5035741;28;20061;-74
2021/10/22 01:54:47;;;;;;;9.57;3.55;;;6.70;99.90;;;;;;5034988;28;20056;-75
2021/10/22 01:57:16;;;;;;;8.77;3.35;;;6.60;99.90;;;;;;5033998;28;20161;-75
2021/10/22 01:59:46;;;;;;;19.08;4.10;;;6.50;99.90;;;;;;5034416;28;20057;-75
2021/10/22 02:02:13;;;;;;;12.77;3.60;;;6.50;99.90;;;;;;5035737;28;20080;-75
2021/10/22 02:04:40;;;;;;;8.80;3.75;;;6.50;99.90;;;;;;5035529;28;20061;-74
2021/10/22 02:07:07;;;;;;;15.65;3.88;;;6.50;99.90;;;;;;5033549;28;20107;-74
2021/10/22 02:09:34;;;;;;;14.30;3.65;;;6.50;99.90;;;;;;5034749;28;20056;-74
2021/10/22 02:12:01;;;;;;;12.80;3.55;;;6.40;99.90;;;;;;5034638;28;20114;-75
2021/10/22 02:14:30;;;;;;;14.15;3.78;;;6.40;99.90;;;;;;5036411;28;20640;-75
2021/10/22 02:16:57;;;;;;;13.80;3.55;;;6.20;99.90;;;;;;5035024;28;20056;-74
2021/10/22 02:19:24;;;;;;;13.35;3.47;;;6.30;99.90;;;;;;5036673;28;20112;-75
2021/10/22 02:21:51;;;;;;;16.48;4.40;;;6.20;99.90;;;;;;5036430;28;20699;-74
2021/10/22 02:24:18;;;;;;;12.75;3.83;;;6.40;99.90;;;;;;5035762;28;20053;-74
2021/10/22 02:26:45;;;;;;;15.05;4.35;;;6.40;99.90;;;;;;5036039;28;20053;-75
2021/10/22 02:29:13;;;;;;;13.55;5.00;;;6.30;99.90;;;;;;5035784;28;20531;-74
2021/10/22 02:31:41;;;;;;;16.70;4.40;;;6.20;99.90;;;;;;5035377;28;20468;-74
2021/10/22 02:34:08;;;;;;;12.68;5.13;;;6.20;99.90;;;;;;5034806;28;20049;-74
2021/10/22 02:36:35;;;;;;;15.90;4.30;;;6.30;99.90;;;;;;5034029;28;20064;-74
2021/10/22 02:39:02;;;;;;;15.25;4.22;;;6.30;99.90;;;;;;5036485;28;20456;-75
2021/10/22 02:41:29;;;;;;;12.38;4.65;;;6.20;99.90;;;;;;5035084;28;20734;-75
2021/10/22 02:43:56;;;;;;;18.38;5.47;;;6.20;99.90;;;;;;5035651;28;20052;-74
2021/10/22 02:46:24;;;;;;;17.80;5.18;;;6.20;99.90;;;;;;5033522;28;20639;-74
2021/10/22 02:48:52;;;;;;;16.95;4.90;;;6.10;99.90;;;;;;5035118;28;20053;-74
2021/10/22 02:51:19;;;;;;;12.80;5.10;;;6.00;99.90;;;;;;5033693;28;20100;-74
2021/10/22 02:53:46;;;;;;;18.98;5.32;;;6.00;99.90;;;;;;5036871;28;20182;-74
2021/10/22 02:56:13;;;;;;;16.40;5.22;;;6.00;99.90;;;;;;5036423;28;20057;-76
2021/10/22 02:58:40;;;;;;;19.50;5.87;;;5.90;99.90;;;;;;5035633;28;20225;-74
2021/10/22 03:01:08;;;;;;;18.53;5.33;;;5.80;99.90;;;;;;5036444;28;20053;-74
2021/10/22 03:03:35;;;;;;;19.10;5.77;;;5.70;99.90;;;;;;5034527;28;20107;-74
2021/10/22 03:06:03;;;;;;;22.87;7.57;;;5.70;99.90;;;;;;5033894;28;20501;-74
2021/10/22 03:08:30;;;;;;;15.40;6.10;;;5.70;99.90;;;;;;5034306;28;20052;-74
2021/10/22 03:10:57;;;;;;;14.27;5.90;;;5.60;99.90;;;;;;5032655;28;20057;-76
2021/10/22 03:13:24;;;;;;;14.97;5.20;;;5.50;99.90;;;;;;5033800;28;20049;-74
2021/10/22 03:15:52;;;;;;;13.93;5.57;;;5.40;99.90;;;;;;5033610;28;20049;-74
2021/10/22 03:18:19;;;;;;;27.10;6.93;;;5.70;99.90;;;;;;5034851;28;20069;-74
2021/10/22 03:20:46;;;;;;;23.77;6.27;;;5.60;99.90;;;;;;5035441;28;20126;-74
2021/10/22 03:23:14;;;;;;;20.13;6.80;;;5.60;99.90;;;;;;5034962;28;20493;-74
2021/10/22 03:25:41;;;;;;;17.80;7.83;;;5.50;99.90;;;;;;5034635;28;20167;-74
2021/10/22 03:28:08;;;;;;;18.80;6.90;;;5.60;99.90;;;;;;5034376;28;20582;-74
2021/10/22 03:30:36;;;;;;;23.17;6.30;;;5.70;99.90;;;;;;5034635;28;20056;-74
2021/10/22 03:33:05;;;;;;;18.17;5.97;;;5.70;99.90;;;;;;5035157;28;20053;-74
2021/10/22 03:35:32;;;;;;;26.80;6.90;;;5.70;99.90;;;;;;5032323;28;20057;-74
2021/10/22 03:37:59;;;;;;;16.63;6.20;;;5.70;99.90;;;;;;5034567;28;20114;-74
2021/10/22 03:40:28;;;;;;;25.10;7.30;;;5.70;99.90;;;;;;5034671;28;20053;-74
2021/10/22 03:42:55;;;;;;;19.90;7.70;;;5.50;99.90;;;;;;5034990;28;20076;-74
2021/10/22 03:45:23;;;;;;;27.37;6.40;;;5.60;99.90;;;;;;5033480;28;20505;-74
2021/10/22 03:47:50;;;;;;;18.67;5.70;;;5.70;99.90;;;;;;5034890;28;20085;-74
2021/10/22 03:50:18;;;;;;;19.53;6.43;;;5.70;99.90;;;;;;5034164;28;20933;-74
2021/10/22 03:52:45;;;;;;;20.97;6.80;;;5.90;99.90;;;;;;5033085;28;20104;-74
2021/10/22 03:55:12;;;;;;;20.90;6.57;;;6.10;99.90;;;;;;5034743;28;20099;-74
2021/10/22 03:57:41;;;;;;;21.10;6.13;;;6.20;99.90;;;;;;5034940;28;20049;-74
2021/10/22 04:00:10;;;;;;;16.10;6.07;;;6.30;99.90;;;;;;5035102;28;20426;-74
2021/10/22 04:02:38;;;;;;;17.90;5.83;;;6.40;99.90;;;;;;5034363;28;20103;-73
2021/10/22 04:05:07;;;;;;;21.97;5.47;;;6.50;99.90;;;;;;5033812;28;20395;-74
2021/10/22 04:07:35;;;;;;;21.87;5.87;;;6.60;99.90;;;;;;5033027;28;20604;-73
2021/10/22 04:10:02;;;;;;;22.77;5.90;;;6.60;99.90;;;;;;5033243;28;20057;-73
2021/10/22 04:12:29;;;;;;;20.83;5.73;;;6.60;99.90;;;;;;5033096;28;20049;-73
2021/10/22 04:14:57;;;;;;;17.47;5.70;;;6.60;99.90;;;;;;5034587;28;20099;-74
2021/10/22 04:17:24;;;;;;;19.50;5.27;;;6.60;99.90;;;;;;5034172;28;20760;-74
2021/10/22 04:19:52;;;;;;;15.23;5.50;;;6.50;99.90;;;;;;5035281;28;20060;-74
2021/10/22 04:22:19;;;;;;;20.77;6.70;;;6.50;99.90;;;;;;5033157;28;20474;-74
2021/10/22 04:24:46;;;;;;;18.43;5.20;;;6.50;99.90;;;;;;5039579;28;20068;-74
2021/10/22 04:27:13;;;;;;;20.60;5.53;;;6.40;99.90;;;;;;5041209;28;20472;-74
2021/10/22 04:29:40;;;;;;;19.37;4.93;;;6.40;99.90;;;;;;5037315;28;20699;-73
2021/10/22 04:32:09;;;;;;;20.70;5.77;;;6.40;99.90;;;;;;5037389;28;20048;-74
2021/10/22 04:34:36;;;;;;;20.27;5.30;;;6.30;99.90;;;;;;5035789;28;20552;-74
2021/10/22 04:37:22;;;;;;;16.50;5.07;;;6.30;99.90;;;;;;5035908;28;20353;-75
2021/10/22 04:42:37;;;;;;;23.93;6.07;;;6.20;99.90;;;;;;5037950;28;20048;-74
2021/10/22 04:45:05;;;;;;;21.10;4.80;;;6.20;99.90;;;;;;5037918;28;20408;-73
2021/10/22 04:47:34;;;;;;;23.30;5.23;;;6.10;99.90;;;;;;5037670;28;20069;-74
2021/10/22 04:50:02;;;;;;;28.10;7.10;;;6.20;99.90;;;;;;5037087;28;20080;-74
2021/10/22 04:52:29;;;;;;;14.47;5.10;;;6.20;99.90;;;;;;5036520;28;20114;-75
2021/10/22 04:54:56;;;;;;;19.60;5.87;;;6.10;99.90;;;;;;5038297;28;20057;-74
2021/10/22 04:57:23;;;;;;;19.13;5.27;;;6.10;99.90;;;;;;5037604;28;20048;-74
2021/10/22 04:59:50;;;;;;;21.10;4.80;;;6.10;99.90;;;;;;5038667;28;20049;-75
2021/10/22 05:02:17;;;;;;;17.80;5.43;;;6.10;99.90;;;;;;5040919;28;20049;-75
2021/10/22 05:04:45;;;;;;;17.20;5.43;;;6.10;99.90;;;;;;5041473;28;20106;-74
2021/10/22 05:07:12;;;;;;;19.67;5.27;;;6.10;99.90;;;;;;5041935;28;20080;-75
2021/10/22 05:09:39;;;;;;;20.30;5.40;;;6.10;99.90;;;;;;5041333;28;20053;-74
2021/10/22 05:12:06;;;;;;;21.80;4.67;;;6.20;99.90;;;;;;5040620;28;20053;-75
2021/10/22 05:14:34;;;;;;;20.47;6.00;;;6.20;99.90;;;;;;5041515;28;20114;-74
2021/10/22 05:17:01;;;;;;;19.23;5.97;;;6.30;99.90;;;;;;5040962;28;20053;-74
2021/10/22 05:19:28;;;;;;;23.40;5.70;;;6.30;99.90;;;;;;5039880;28;20075;-74
2021/10/22 05:21:56;;;;;;;16.73;5.07;;;6.30;99.90;;;;;;5037582;28;20181;-74
2021/10/22 05:24:23;;;;;;;26.80;6.60;;;6.30;99.90;;;;;;5038939;28;20103;-74
2021/10/22 05:26:50;;;;;;;18.73;4.67;;;6.30;99.90;;;;;;5036942;28;20048;-74
2021/10/22 05:29:17;;;;;;;20.20;5.60;;;6.30;99.90;;;;;;5036258;28;20565;-74
2021/10/22 05:31:44;;;;;;;20.57;5.43;;;6.30;99.90;;;;;;5036135;28;20079;-74
2021/10/22 05:34:12;;;;;;;21.17;5.10;;;6.30;99.90;;;;;;5036254;28;20549;-74
2021/10/22 05:36:39;;;;;;;14.27;4.60;;;6.20;99.90;;;;;;5035929;28;20057;-74
2021/10/22 05:39:07;;;;;;;17.43;5.10;;;6.20;99.90;;;;;;5038756;28;20053;-74
2021/10/22 05:41:34;;;;;;;30.63;5.83;;;6.20;99.90;;;;;;5035835;28;20155;-74
2021/10/22 05:44:01;;;;;;;18.60;5.20;;;6.20;99.90;;;;;;5035184;28;20501;-74
2021/10/22 05:46:29;;;;;;;15.20;4.60;;;6.20;99.90;;;;;;5038288;28;20432;-74
2021/10/22 05:48:56;;;;;;;14.43;4.03;;;6.20;99.90;;;;;;5041031;28;20057;-74
2021/10/22 05:51:23;;;;;;;24.07;5.03;;;6.10;99.90;;;;;;5039295;28;20052;-74
2021/10/22 05:53:51;;;;;;;14.67;3.57;;;6.10;99.90;;;;;;5039843;28;20057;-74
2021/10/22 05:56:20;;;;;;;14.87;4.60;;;6.20;99.90;;;;;;5040859;28;20155;-74
2021/10/22 05:58:47;;;;;;;21.33;4.57;;;6.10;99.90;;;;;;5040991;28;20045;-74
2021/10/22 06:01:14;;;;;;;17.00;5.43;;;6.10;99.90;;;;;;5041245;28;20656;-75
2021/10/22 06:03:41;;;;;;;15.37;3.67;;;6.10;99.90;;;;;;5041439;28;20052;-74
2021/10/22 06:06:08;;;;;;;17.10;5.07;;;6.10;99.90;;;;;;5039443;28;20056;-74
2021/10/22 06:08:36;;;;;;;14.03;4.80;;;6.10;99.90;;;;;;5037417;28;20053;-74
2021/10/22 06:11:09;;;;;;;25.03;4.97;;;6.10;99.90;;;;;;5035907;28;20075;-74
2021/10/22 06:13:38;;;;;;;16.43;4.60;;;6.10;99.90;;;;;;5038462;28;20087;-74
2021/10/22 06:16:06;;;;;;;15.00;4.23;;;6.20;99.90;;;;;;5040315;28;20370;-74
2021/10/22 06:18:33;;;;;;;16.00;4.57;;;6.20;99.90;;;;;;5036949;28;20053;-75
2021/10/22 06:21:04;;;;;;;20.90;3.77;;;6.30;99.90;;;;;;5035113;28;20067;-75
2021/10/22 06:26:15;;;;;;;21.10;5.03;;;6.40;99.90;;;;;;5036213;28;20071;-75
2021/10/22 06:28:44;;;;;;;14.23;3.90;;;6.50;99.90;;;;;;5036495;28;20077;-74
2021/10/22 06:31:12;;;;;;;20.53;4.83;;;6.60;99.90;;;;;;5037488;28;20045;-74
2021/10/22 06:33:39;;;;;;;19.80;3.78;;;6.70;99.90;;;;;;5036208;28;20053;-74
2021/10/22 06:36:07;;;;;;;20.73;4.10;;;6.80;99.90;;;;;;5036084;28;20132;-75
2021/10/22 06:38:34;;;;;;;18.48;4.10;;;6.80;99.90;;;;;;5038729;28;20454;-75
2021/10/22 06:41:01;;;;;;;21.98;4.57;;;6.90;99.90;;;;;;5037536;28;20052;-75
2021/10/22 06:43:28;;;;;;;11.27;3.15;;;7.00;99.90;;;;;;5036989;28;20053;-75
2021/10/22 06:45:57;;;;;;;18.65;4.22;;;7.00;99.90;;;;;;5034560;28;20053;-75
2021/10/22 06:48:24;;;;;;;21.50;5.00;;;7.10;99.90;;;;;;5036138;28;20053;-75
2021/10/22 06:50:52;;;;;;;14.77;4.07;;;7.20;99.90;;;;;;5034368;28;20081;-75
2021/10/22 06:53:19;;;;;;;19.45;4.40;;;7.20;99.90;;;;;;5035725;28;20079;-75
2021/10/22 06:55:46;;;;;;;21.88;5.25;;;7.10;99.90;;;;;;5033178;28;20165;-75
2021/10/22 06:58:13;;;;;;;17.17;4.30;;;7.20;99.90;;;;;;5034088;28;20088;-75
2021/10/22 07:00:41;;;;;;;17.33;3.90;;;7.30;99.90;;;;;;5032724;28;20215;-75
2021/10/22 07:03:15;;;;;;;14.55;4.00;;;7.20;99.90;;;;;;5034816;28;20497;-75
2021/10/22 07:06:01;;;;;;;16.40;3.45;;;7.10;99.90;;;;;;5037430;28;20056;-75
2021/10/22 07:08:27;;;;;;;27.40;4.32;;;7.20;99.90;;;;;;5037367;28;20425;-75
2021/10/22 07:10:54;;;;;;;22.55;4.43;;;7.20;99.90;;;;;;5038027;28;20049;-75
2021/10/22 07:13:21;;;;;;;15.80;4.03;;;7.10;99.90;;;;;;5037503;28;20509;-75
2021/10/22 07:15:49;;;;;;;15.90;4.75;;;7.20;99.90;;;;;;5035896;28;20497;-75
2021/10/22 07:18:17;;;;;;;16.65;4.38;;;7.20;99.90;;;;;;5039304;28;20458;-76
2021/10/22 07:20:44;;;;;;;20.70;3.83;;;7.40;99.90;;;;;;5036768;28;20080;-75
2021/10/22 07:23:11;;;;;;;19.10;4.22;;;7.40;99.90;;;;;;5037620;28;20080;-75
2021/10/22 07:25:40;;;;;;;11.23;3.40;;;7.20;99.90;;;;;;5035602;28;20084;-75
2021/10/22 07:28:10;;;;;;;16.58;3.88;;;7.30;99.90;;;;;;5035508;28;20053;-74
2021/10/22 07:30:38;;;;;;;18.63;3.83;;;7.30;99.90;;;;;;5035129;28;20084;-75
2021/10/22 07:33:05;;;;;;;18.08;3.20;;;7.30;99.90;;;;;;5035056;28;20438;-74
2021/10/22 07:35:35;;;;;;;17.55;4.68;;;7.40;99.90;;;;;;5033285;28;20833;-74
2021/10/22 07:38:02;;;;;;;13.57;2.78;;;7.70;99.90;;;;;;5035814;28;20081;-74
2021/10/22 07:40:30;;;;;;;12.63;3.38;;;7.60;99.90;;;;;;5034316;28;20052;-74
2021/10/22 07:42:57;;;;;;;13.93;3.45;;;7.70;99.90;;;;;;5035283;28;20056;-74
2021/10/22 07:45:24;;;;;;;12.75;3.67;;;8.00;99.90;;;;;;5035622;28;20564;-75
2021/10/22 07:47:51;;;;;;;16.13;3.00;;;7.90;99.90;;;;;;5036110;28;20057;-75
2021/10/22 07:50:19;;;;;;;14.60;3.75;;;8.00;99.90;;;;;;5035058;28;20061;-74
2021/10/22 07:52:47;;;;;;;12.63;3.00;;;8.10;99.90;;;;;;5034990;28;20151;-74
2021/10/22 07:55:14;;;;;;;14.30;3.20;;;8.60;99.90;;;;;;5036168;28;20398;-73
2021/10/22 07:57:41;;;;;;;15.90;3.22;;;8.80;99.90;;;;;;5036784;28;20571;-73
2021/10/22 08:00:10;;;;;;;10.95;3.08;;;8.20;99.90;;;;;;5035631;28;20057;-73
2021/10/22 08:02:38;;;;;;;16.85;3.47;;;8.40;99.90;;;;;;5035932;28;20139;-73
2021/10/22 08:05:07;;;;;;;15.68;3.45;;;8.60;99.90;;;;;;5037187;28;20056;-73
2021/10/22 08:07:37;;;;;;;16.33;3.60;;;8.20;99.90;;;;;;5036511;28;20064;-73
2021/10/22 08:10:07;;;;;;;15.00;3.40;;;8.30;99.90;;;;;;5036258;28;20076;-72
2021/10/22 08:12:36;;;;;;;13.60;3.28;;;8.70;99.90;;;;;;5035428;28;20045;-73
2021/10/22 08:15:03;;;;;;;14.43;3.15;;;8.70;99.90;;;;;;5036653;28;20067;-73
2021/10/22 08:17:31;;;;;;;10.55;2.45;;;9.60;99.90;;;;;;5033493;28;20072;-73
2021/10/22 08:19:59;;;;;;;16.17;2.72;;;11.10;99.90;;;;;;5032028;28;20587;-72
2021/10/22 08:22:29;;;;;;;15.65;3.00;;;12.60;99.90;;;;;;5031331;28;20496;-73
2021/10/22 08:25:01;;;;;;;12.88;2.95;;;12.00;99.90;;;;;;5031062;28;20488;-73
2021/10/22 08:27:31;;;;;;;16.17;3.08;;;12.60;99.90;;;;;;5030786;28;20059;-73
2021/10/22 08:29:59;;;;;;;11.20;3.15;;;13.70;99.90;;;;;;5030565;28;20091;-73
2021/10/22 08:32:27;;;;;;;11.07;2.60;;;12.70;99.90;;;;;;5030679;28;20077;-72
2021/10/22 08:34:54;;;;;;;7.40;2.28;;;14.70;99.90;;;;;;5030019;28;20134;-73
2021/10/22 08:37:22;;;;;;;12.35;2.88;;;15.10;99.90;;;;;;5028770;28;20045;-72
2021/10/22 08:39:49;;;;;;;11.73;2.80;;;13.60;99.90;;;;;;5029915;28;20055;-72
2021/10/22 08:42:22;;;;;;;10.25;2.72;;;15.00;99.90;;;;;;5029523;28;20068;-72
2021/10/22 08:44:52;;;;;;;9.25;2.13;;;14.20;99.90;;;;;;5028810;28;20551;-72
2021/10/22 08:47:21;;;;;;;6.80;2.15;;;14.80;99.90;;;;;;5029038;28;20053;-73
2021/10/22 08:49:48;;;;;;;12.23;2.22;;;13.60;99.90;;;;;;5030923;28;20053;-72
2021/10/22 08:52:15;;;;;;;15.52;2.35;;;13.60;99.90;;;;;;5030538;28;20578;-72
2021/10/22 08:54:43;;;;;;;12.10;2.50;;;14.10;99.90;;;;;;5031272;28;20053;-73
2021/10/22 08:57:10;;;;;;;11.65;2.47;;;12.70;99.90;;;;;;5030133;28;20056;-73
2021/10/22 08:59:37;;;;;;;13.15;2.80;;;13.00;99.90;;;;;;5030577;28;20049;-72
2021/10/22 09:02:18;;;;;;;11.07;2.33;;;13.10;99.90;;;;;;5028889;28;20441;-72
2021/10/22 09:04:47;;;;;;;14.55;2.97;;;14.10;99.90;;;;;;5029541;28;20063;-72
2021/10/22 09:07:16;;;;;;;8.95;2.40;;;13.70;99.90;;;;;;5028203;28;20464;-73
2021/10/22 09:09:44;;;;;;;13.15;2.58;;;15.00;99.90;;;;;;5028923;28;20052;-73
2021/10/22 09:12:12;;;;;;;13.27;3.25;;;15.00;99.90;;;;;;5031500;28;20103;-72
2021/10/22 09:14:41;;;;;;;11.68;2.50;;;14.00;99.90;;;;;;5031292;28;20141;-73
2021/10/22 09:17:13;;;;;;;9.20;2.17;;;16.10;99.90;;;;;;5029307;28;20102;-72
2021/10/22 09:19:44;;;;;;;12.65;2.17;;;17.30;99.90;;;;;;5032696;28;20131;-72
2021/10/22 09:22:23;;;;;;;10.77;2.53;;;13.60;99.90;;;;;;5032344;28;20084;-73
2021/10/22 09:24:51;;;;;;;10.52;2.40;;;15.00;99.90;;;;;;5030754;28;20049;-73
2021/10/22 09:27:39;;;;;;;11.38;2.30;;;17.50;99.90;;;;;;5030178;28;20138;-73
2021/10/22 09:30:11;;;;;;;13.73;2.35;;;15.80;99.90;;;;;;5031763;28;20052;-72
2021/10/22 09:32:48;;;;;;;11.20;2.65;;;17.10;99.90;;;;;;5032518;28;20045;-73
2021/10/22 09:35:18;;;;;;;13.50;3.53;;;15.90;99.90;;;;;;5030585;28;20055;-73
2021/10/22 09:37:47;;;;;;;16.05;2.60;;;17.30;99.90;;;;;;5030991;28;20506;-72
2021/10/22 09:40:14;;;;;;;11.77;2.85;;;17.00;99.90;;;;;;5032803;28;20518;-72
2021/10/22 09:42:49;;;;;;;9.80;1.98;;;15.00;99.90;;;;;;5033634;28;20103;-72
2021/10/22 09:45:29;;;;;;;10.43;2.40;;;14.60;99.90;;;;;;5028808;28;20577;-72
2021/10/22 09:47:57;;;;;;;16.65;3.13;;;17.00;99.90;;;;;;5029984;28;20076;-72
2021/10/22 09:50:28;;;;;;;10.32;2.63;;;15.30;99.90;;;;;;5030954;28;20053;-72
2021/10/22 09:52:57;;;;;;;10.70;2.58;;;18.40;99.90;;;;;;5030171;28;20138;-72
2021/10/22 09:55:29;;;;;;;8.65;1.65;;;18.00;99.90;;;;;;5029887;28;20084;-72
2021/10/22 09:58:06;;;;;;;7.15;1.85;;;16.90;99.90;;;;;;5031398;28;20063;-72
2021/10/22 10:00:36;;;;;;;8.57;1.70;;;17.60;99.90;;;;;;5029742;28;20049;-72
2021/10/22 10:03:06;;;;;;;7.05;2.25;;;15.90;99.90;;;;;;5029566;28;20088;-72
2021/10/22 10:05:33;;;;;;;7.40;1.60;;;16.40;99.90;;;;;;5028598;28;20067;-72
2021/10/22 10:08:01;;;;;;;4.85;1.45;;;17.00;99.90;;;;;;5029810;28;20076;-72
2021/10/22 10:10:28;;;;;;;7.75;1.75;;;14.20;99.90;;;;;;5030679;28;20466;-72
2021/10/22 10:12:55;;;;;;;8.43;2.17;;;15.80;99.90;;;;;;5031444;28;20418;-72
2021/10/22 10:15:22;;;;;;;6.05;1.90;;;17.10;99.60;;;;;;5029722;28;20115;-74
2021/10/22 10:17:51;;;;;;;9.05;2.13;;;17.60;99.20;;;;;;5030566;28;20049;-71
2021/10/22 10:20:26;;;;;;;10.75;1.80;;;19.20;96.70;;;;;;5029796;28;20077;-71
2021/10/22 10:22:56;;;;;;;10.48;2.17;;;19.70;96.00;;;;;;5028867;28;20084;-71
2021/10/22 10:25:24;;;;;;;9.57;1.90;;;18.80;96.50;;;;;;5029385;28;20103;-71
2021/10/22 10:27:54;;;;;;;8.82;2.55;;;17.30;97.10;;;;;;5030930;28;20589;-71
2021/10/22 10:30:28;;;;;;;8.93;2.28;;;19.00;96.80;;;;;;5030575;28;20053;-71
2021/10/22 10:32:56;;;;;;;11.57;2.60;;;17.90;95.90;;;;;;5033844;28;20080;-71
2021/10/22 10:35:25;;;;;;;7.95;1.55;;;18.20;96.50;;;;;;5034039;28;20127;-73
2021/10/22 10:37:53;;;;;;;12.98;2.90;;;16.10;96.90;;;;;;5033665;28;20119;-73
2021/10/22 10:40:23;;;;;;;13.73;2.13;;;18.00;96.90;;;;;;5034441;28;20102;-73
2021/10/22 10:42:52;;;;;;;9.93;2.28;;;17.70;96.80;;;;;;5035028;28;20474;-71
2021/10/22 10:45:39;;;;;;;7.80;2.38;;;20.00;95.60;;;;;;5033266;28;20497;-71
2021/10/22 10:48:08;;;;;;;10.38;2.25;;;20.30;94.90;;;;;;5035226;28;20053;-71
2021/10/22 10:50:43;;;;;;;8.43;2.15;;;20.70;94.30;;;;;;5034902;28;20044;-71
2021/10/22 10:53:10;;;;;;;8.43;2.00;;;18.70;95.10;;;;;;5035380;28;20049;-71
2021/10/22 10:55:42;;;;;;;9.68;2.28;;;17.70;96.40;;;;;;5034424;28;20080;-71
2021/10/22 10:58:17;;;;;;;9.82;1.95;;;17.90;96.90;;;;;;5034126;28;20056;-71
2021/10/22 11:00:47;;;;;;;8.43;1.88;;;20.00;95.60;;;;;;5033454;28;20057;-71
2021/10/22 11:03:17;;;;;;;10.57;2.63;;;19.90;93.70;;;;;;5032537;28;20483;-71
2021/10/22 11:06:08;;;;;;;6.72;1.90;;;18.40;94.80;;;;;;5033610;28;20118;-71
2021/10/22 11:08:44;;;;;;;9.20;1.60;;;17.50;94.40;;;;;;5033433;28;20049;-72
2021/10/22 11:11:28;;;;;;;7.03;1.85;;;19.20;93.90;;;;;;5033981;28;20049;-72
2021/10/22 11:13:59;;;;;;;9.43;2.05;;;20.80;92.80;;;;;;5034328;28;20056;-72
2021/10/22 11:16:32;;;;;;;9.13;1.58;;;19.50;92.20;;;;;;5032568;28;20061;-72
2021/10/22 11:19:01;;;;;;;8.48;2.03;;;21.80;92.60;;;;;;5033007;28;20052;-72
2021/10/22 11:21:30;;;;;;;12.10;2.60;;;21.70;92.40;;;;;;5032821;28;20077;-72
2021/10/22 11:23:58;;;;;;;10.02;1.92;;;21.10;92.70;;;;;;5033192;28;20128;-72
2021/10/22 11:26:26;;;;;;;8.25;1.88;;;23.40;91.80;;;;;;5032594;28;20146;-72
2021/10/22 11:28:55;;;;;;;10.30;2.00;;;22.30;90.80;;;;;;5034020;28;20049;-72
2021/10/22 11:31:39;;;;;;;8.80;1.70;;;21.30;90.90;;;;;;5033257;28;20556;-72
2021/10/22 11:34:07;;;;;;;7.25;1.58;;;20.60;91.90;;;;;;5033949;28;20063;-72
2021/10/22 11:36:36;;;;;;;8.45;1.88;;;19.80;91.90;;;;;;5032004;28;20502;-72
2021/10/22 11:39:16;;;;;;;7.78;1.50;;;17.90;92.90;;;;;;5032103;28;20049;-72
2021/10/22 11:41:43;;;;;;;9.15;1.60;;;18.30;93.90;;;;;;5031242;28;20048;-73
2021/10/22 11:44:11;;;;;;;7.95;1.58;;;18.80;93.00;;;;;;5033702;28;20517;-72
2021/10/22 11:46:45;;;;;;;2.80;1.10;;;17.70;92.90;;;;;;5032049;28;20134;-71
2021/10/22 11:49:24;;;;;;;8.80;1.77;;;16.40;94.20;;;;;;5033180;28;20547;-71
2021/10/22 11:51:54;;;;;;;10.20;1.98;;;16.40;94.10;;;;;;5033181;28;20064;-71
2021/10/22 11:54:23;;;;;;;7.90;1.85;;;18.40;94.00;;;;;;5032411;28;20501;-72
2021/10/22 11:56:50;;;;;;;7.75;1.60;;;17.30;93.40;;;;;;5031773;28;20072;-72
2021/10/22 11:59:18;;;;;;;8.55;1.48;;;19.40;92.60;;;;;;5032694;28;20049;-71
2021/10/22 12:01:46;;;;;;;9.23;1.95;;;19.30;92.80;;;;;;5033023;28;20055;-71
2021/10/22 12:04:26;;;;;;;8.98;1.80;;;21.80;91.00;;;;;;5032658;28;20475;-72
2021/10/22 12:07:02;;;;;;;5.20;1.20;;;18.00;93.60;;;;;;5032332;28;20182;-72
2021/10/22 12:09:34;;;;;;;7.20;1.40;;;17.00;92.60;;;;;;5030428;28;20049;-71
2021/10/22 12:12:10;;;;;;;5.93;1.80;;;17.70;94.10;;;;;;5029422;28;20412;-71
2021/10/22 12:14:40;;;;;;;5.78;1.67;;;17.80;94.10;;;;;;5028665;28;20045;-71
2021/10/22 12:17:10;;;;;;;7.10;1.75;;;17.30;94.30;;;;;;5027306;28;20084;-71
2021/10/22 12:19:39;;;;;;;10.13;1.92;;;18.60;93.80;;;;;;5028304;28;20084;-71
2021/10/22 12:22:08;;;;;;;8.25;1.55;;;18.30;93.60;;;;;;5032853;28;20052;-71
2021/10/22 12:24:39;;;;;;;7.70;1.77;;;19.10;93.40;;;;;;5034218;28;20137;-72
2021/10/22 12:27:08;;;;;;;6.82;1.70;;;19.00;92.80;;;;;;5032203;28;20122;-72
2021/10/22 12:29:59;;;;;;;5.95;1.67;;;17.80;93.40;;;;;;5032476;28;20446;-71
2021/10/22 12:32:44;;;;;;;3.25;1.33;;;18.20;93.70;;;;;;5029891;28;20076;-71
2021/10/22 12:35:24;;;;;;;7.47;1.40;;;16.20;93.20;;;;;;5029506;28;20114;-71
2021/10/22 12:38:02;;;;;;;8.88;1.80;;;16.50;93.10;;;;;;5031952;28;20088;-72
2021/10/22 12:40:32;;;;;;;5.50;1.40;;;16.20;92.70;;;;;;5032575;28;20045;-72
2021/10/22 12:43:14;;;;;;;11.95;1.92;;;15.70;92.50;;;;;;5029262;28;21370;-73
2021/10/22 12:45:48;;;;;;;4.57;1.13;;;15.90;92.60;;;;;;5031983;28;20398;-72
2021/10/22 12:48:18;;;;;;;6.03;1.73;;;16.20;92.20;;;;;;5033071;28;20513;-72
2021/10/22 12:50:46;;;;;;;5.15;1.83;;;18.10;93.10;;;;;;5033129;28;20138;-72
2021/10/22 12:53:19;;;;;;;8.43;1.77;;;15.80;93.00;;;;;;5033388;28;20464;-72
2021/10/22 12:55:59;;;;;;;6.18;1.42;;;16.50;93.90;;;;;;5031934;28;20573;-71
2021/10/22 12:58:26;;;;;;;9.05;1.98;;;16.20;93.80;;;;;;5032149;28;21333;-71
2021/10/22 13:01:09;;;;;;;7.32;1.70;;;14.90;95.40;;;;;;5032068;28;20051;-71